sensor_id;sensor_type;location;lat;lon;timestamp;P1;durP1;ratioP1;P2;durP2;ratioP2
1308;SDS011;647;48.840;9.314;2022-09-09T00:02:05;59.20;;;3.47;;
1308;SDS011;647;48.840;9.314;2022-09-09T00:04:37;59.40;;;3.83;;
1308;SDS011;647;48.840;9.314;2022-09-09T00:07:06;60.70;;;3.20;;
1308;SDS011;647;48.840;9.314;2022-09-09T00:09:39;59.67;;;3.20;;
1308;SDS011;647;48.840;9.314;2022-09-09T00:12:10;61.70;;;3.60;;
1308;SDS011;647;48.840;9.314;2022-09-09T00:14:39;59.07;;;3.13;;
1308;SDS011;647;48.840;9.314;2022-09-09T00:17:12;58.70;;;3.30;;
1308;SDS011;647;48.840;9.314;2022-09-09T00:19:44;58.70;;;3.20;;
1308;SDS011;647;48.840;9.314;2022-09-09T00:22:16;58.57;;;3.20;;
1308;SDS011;647;48.840;9.314;2022-09-09T00:24:44;58.57;;;3.33;;
1308;SDS011;647;48.840;9.314;2022-09-09T00:27:17;58.97;;;3.40;;
1308;SDS011;647;48.840;9.314;2022-09-09T00:29:47;59.10;;;3.30;;
1308;SDS011;647;48.840;9.314;2022-09-09T00:32:20;59.63;;;3.97;;
1308;SDS011;647;48.840;9.314;2022-09-09T00:34:48;58.60;;;3.10;;
1308;SDS011;647;48.840;9.314;2022-09-09T00:37:16;58.67;;;3.30;;
1308;SDS011;647;48.840;9.314;2022-09-09T00:39:44;58.60;;;3.07;;
1308;SDS011;647;48.840;9.314;2022-09-09T00:42:14;64.03;;;3.10;;
1308;SDS011;647;48.840;9.314;2022-09-09T00:44:46;61.97;;;3.60;;
1308;SDS011;647;48.840;9.314;2022-09-09T00:47:24;58.60;;;3.20;;
1308;SDS011;647;48.840;9.314;2022-09-09T00:49:57;58.77;;;3.20;;
1308;SDS011;647;48.840;9.314;2022-09-09T00:52:30;58.67;;;3.10;;
1308;SDS011;647;48.840;9.314;2022-09-09T00:55:02;59.57;;;5.20;;
1308;SDS011;647;48.840;9.314;2022-09-09T00:57:30;58.90;;;3.30;;
1308;SDS011;647;48.840;9.314;2022-09-09T01:00:17;59.50;;;3.30;;
1308;SDS011;647;48.840;9.314;2022-09-09T01:02:49;63.27;;;3.23;;
1308;SDS011;647;48.840;9.314;2022-09-09T01:05:19;58.60;;;3.00;;
1308;SDS011;647;48.840;9.314;2022-09-09T01:07:47;59.10;;;3.00;;
1308;SDS011;647;48.840;9.314;2022-09-09T01:10:17;59.10;;;2.97;;
1308;SDS011;647;48.840;9.314;2022-09-09T01:12:47;58.60;;;2.80;;
1308;SDS011;647;48.840;9.314;2022-09-09T01:15:16;59.20;;;3.30;;
1308;SDS011;647;48.840;9.314;2022-09-09T01:17:53;58.80;;;3.00;;
1308;SDS011;647;48.840;9.314;2022-09-09T01:20:23;59.40;;;3.30;;
1308;SDS011;647;48.840;9.314;2022-09-09T01:22:58;58.70;;;3.00;;
1308;SDS011;647;48.840;9.314;2022-09-09T01:28:15;58.87;;;3.10;;
1308;SDS011;647;48.840;9.314;2022-09-09T01:30:43;58.87;;;3.40;;
1308;SDS011;647;48.840;9.314;2022-09-09T01:33:12;58.57;;;3.37;;
1308;SDS011;647;48.840;9.314;2022-09-09T01:35:42;62.00;;;4.03;;
1308;SDS011;647;48.840;9.314;2022-09-09T01:38:10;58.47;;;2.93;;
1308;SDS011;647;48.840;9.314;2022-09-09T01:40:37;59.60;;;3.30;;
1308;SDS011;647;48.840;9.314;2022-09-09T01:43:05;58.70;;;3.20;;
1308;SDS011;647;48.840;9.314;2022-09-09T01:45:34;58.30;;;2.90;;
1308;SDS011;647;48.840;9.314;2022-09-09T01:48:01;58.43;;;2.93;;
1308;SDS011;647;48.840;9.314;2022-09-09T01:50:28;60.13;;;3.43;;
1308;SDS011;647;48.840;9.314;2022-09-09T01:52:56;58.40;;;3.30;;
1308;SDS011;647;48.840;9.314;2022-09-09T01:55:28;59.30;;;3.30;;
1308;SDS011;647;48.840;9.314;2022-09-09T01:57:56;59.10;;;3.20;;
1308;SDS011;647;48.840;9.314;2022-09-09T02:00:28;59.10;;;3.20;;
1308;SDS011;647;48.840;9.314;2022-09-09T02:03:00;58.70;;;2.80;;
1308;SDS011;647;48.840;9.314;2022-09-09T02:05:32;58.27;;;2.80;;
1308;SDS011;647;48.840;9.314;2022-09-09T02:08:03;58.40;;;3.20;;
1308;SDS011;647;48.840;9.314;2022-09-09T02:10:33;58.50;;;3.07;;
1308;SDS011;647;48.840;9.314;2022-09-09T02:13:04;58.47;;;3.00;;
1308;SDS011;647;48.840;9.314;2022-09-09T02:15:35;58.57;;;3.13;;
1308;SDS011;647;48.840;9.314;2022-09-09T02:18:06;59.20;;;3.20;;
1308;SDS011;647;48.840;9.314;2022-09-09T02:20:35;58.90;;;3.20;;
1308;SDS011;647;48.840;9.314;2022-09-09T02:23:03;59.10;;;3.20;;
1308;SDS011;647;48.840;9.314;2022-09-09T02:25:31;58.60;;;3.00;;
1308;SDS011;647;48.840;9.314;2022-09-09T02:28:00;59.57;;;3.30;;
1308;SDS011;647;48.840;9.314;2022-09-09T02:30:28;59.07;;;3.27;;
1308;SDS011;647;48.840;9.314;2022-09-09T02:32:56;59.67;;;3.23;;
1308;SDS011;647;48.840;9.314;2022-09-09T02:35:26;58.43;;;2.80;;
1308;SDS011;647;48.840;9.314;2022-09-09T02:37:56;59.30;;;2.80;;
1308;SDS011;647;48.840;9.314;2022-09-09T02:40:26;58.77;;;3.40;;
1308;SDS011;647;48.840;9.314;2022-09-09T02:42:54;60.07;;;3.17;;
1308;SDS011;647;48.840;9.314;2022-09-09T02:45:22;58.83;;;3.00;;
1308;SDS011;647;48.840;9.314;2022-09-09T02:47:51;58.90;;;3.43;;
1308;SDS011;647;48.840;9.314;2022-09-09T02:50:22;58.53;;;3.10;;
1308;SDS011;647;48.840;9.314;2022-09-09T02:52:59;58.97;;;3.53;;
1308;SDS011;647;48.840;9.314;2022-09-09T02:55:32;62.30;;;4.03;;
1308;SDS011;647;48.840;9.314;2022-09-09T02:58:02;59.23;;;2.90;;
1308;SDS011;647;48.840;9.314;2022-09-09T03:00:32;58.77;;;3.00;;
1308;SDS011;647;48.840;9.314;2022-09-09T03:03:01;58.47;;;2.70;;
1308;SDS011;647;48.840;9.314;2022-09-09T03:05:28;58.47;;;3.03;;
1308;SDS011;647;48.840;9.314;2022-09-09T03:07:55;58.87;;;3.10;;
1308;SDS011;647;48.840;9.314;2022-09-09T03:10:23;58.57;;;2.80;;
1308;SDS011;647;48.840;9.314;2022-09-09T03:12:50;58.77;;;2.90;;
1308;SDS011;647;48.840;9.314;2022-09-09T03:15:18;58.67;;;2.90;;
1308;SDS011;647;48.840;9.314;2022-09-09T03:17:45;58.50;;;3.10;;
1308;SDS011;647;48.840;9.314;2022-09-09T03:20:13;62.30;;;3.63;;
1308;SDS011;647;48.840;9.314;2022-09-09T03:22:40;59.37;;;3.80;;
1308;SDS011;647;48.840;9.314;2022-09-09T03:25:10;58.87;;;3.50;;
1308;SDS011;647;48.840;9.314;2022-09-09T03:27:38;58.67;;;3.10;;
1308;SDS011;647;48.840;9.314;2022-09-09T03:30:06;59.00;;;3.33;;
1308;SDS011;647;48.840;9.314;2022-09-09T03:32:33;61.73;;;3.63;;
1308;SDS011;647;48.840;9.314;2022-09-09T03:35:00;62.60;;;3.87;;
1308;SDS011;647;48.840;9.314;2022-09-09T03:37:27;59.10;;;3.20;;
1308;SDS011;647;48.840;9.314;2022-09-09T03:39:54;59.10;;;3.30;;
1308;SDS011;647;48.840;9.314;2022-09-09T03:42:21;59.07;;;3.20;;
1308;SDS011;647;48.840;9.314;2022-09-09T03:44:50;59.37;;;3.73;;
1308;SDS011;647;48.840;9.314;2022-09-09T03:47:17;59.87;;;3.50;;
1308;SDS011;647;48.840;9.314;2022-09-09T03:49:44;59.00;;;3.03;;
1308;SDS011;647;48.840;9.314;2022-09-09T03:52:11;58.73;;;3.43;;
1308;SDS011;647;48.840;9.314;2022-09-09T03:54:39;58.90;;;3.30;;
1308;SDS011;647;48.840;9.314;2022-09-09T03:57:07;59.00;;;3.20;;
1308;SDS011;647;48.840;9.314;2022-09-09T03:59:34;59.23;;;3.40;;
1308;SDS011;647;48.840;9.314;2022-09-09T04:02:03;58.80;;;3.10;;
1308;SDS011;647;48.840;9.314;2022-09-09T04:04:30;58.57;;;3.00;;
1308;SDS011;647;48.840;9.314;2022-09-09T04:06:57;58.77;;;3.10;;
1308;SDS011;647;48.840;9.314;2022-09-09T04:09:24;58.77;;;3.40;;
1308;SDS011;647;48.840;9.314;2022-09-09T04:11:51;59.27;;;3.27;;
1308;SDS011;647;48.840;9.314;2022-09-09T04:14:19;59.53;;;3.63;;
1308;SDS011;647;48.840;9.314;2022-09-09T04:16:47;59.57;;;3.50;;
1308;SDS011;647;48.840;9.314;2022-09-09T04:19:15;58.97;;;3.60;;
1308;SDS011;647;48.840;9.314;2022-09-09T04:21:42;58.93;;;3.37;;
1308;SDS011;647;48.840;9.314;2022-09-09T04:24:09;60.27;;;3.60;;
1308;SDS011;647;48.840;9.314;2022-09-09T04:26:36;58.67;;;3.10;;
1308;SDS011;647;48.840;9.314;2022-09-09T04:29:04;58.97;;;3.23;;
1308;SDS011;647;48.840;9.314;2022-09-09T04:31:33;58.67;;;3.10;;
1308;SDS011;647;48.840;9.314;2022-09-09T04:34:00;58.67;;;3.03;;
1308;SDS011;647;48.840;9.314;2022-09-09T04:36:31;58.80;;;3.30;;
1308;SDS011;647;48.840;9.314;2022-09-09T04:38:59;58.90;;;3.30;;
1308;SDS011;647;48.840;9.314;2022-09-09T04:41:26;58.47;;;2.80;;
1308;SDS011;647;48.840;9.314;2022-09-09T04:43:53;59.90;;;3.40;;
1308;SDS011;647;48.840;9.314;2022-09-09T04:46:21;59.40;;;3.43;;
1308;SDS011;647;48.840;9.314;2022-09-09T04:48:48;59.37;;;3.40;;
1308;SDS011;647;48.840;9.314;2022-09-09T04:51:16;59.07;;;3.30;;
1308;SDS011;647;48.840;9.314;2022-09-09T04:53:44;58.43;;;2.73;;
1308;SDS011;647;48.840;9.314;2022-09-09T04:56:13;58.40;;;3.10;;
1308;SDS011;647;48.840;9.314;2022-09-09T04:58:41;63.13;;;3.47;;
1308;SDS011;647;48.840;9.314;2022-09-09T05:01:09;60.27;;;3.57;;
1308;SDS011;647;48.840;9.314;2022-09-09T05:03:37;61.10;;;3.33;;
1308;SDS011;647;48.840;9.314;2022-09-09T05:06:05;58.30;;;3.07;;
1308;SDS011;647;48.840;9.314;2022-09-09T05:08:33;59.37;;;2.97;;
1308;SDS011;647;48.840;9.314;2022-09-09T05:11:01;58.30;;;2.90;;
1308;SDS011;647;48.840;9.314;2022-09-09T05:13:28;58.20;;;3.00;;
1308;SDS011;647;48.840;9.314;2022-09-09T05:15:57;65.00;;;3.10;;
1308;SDS011;647;48.840;9.314;2022-09-09T05:18:24;58.50;;;2.90;;
1308;SDS011;647;48.840;9.314;2022-09-09T05:20:51;58.60;;;2.93;;
1308;SDS011;647;48.840;9.314;2022-09-09T05:23:19;58.57;;;2.80;;
1308;SDS011;647;48.840;9.314;2022-09-09T05:25:54;58.40;;;3.30;;
1308;SDS011;647;48.840;9.314;2022-09-09T05:28:23;59.87;;;3.40;;
1308;SDS011;647;48.840;9.314;2022-09-09T05:30:57;59.50;;;3.10;;
1308;SDS011;647;48.840;9.314;2022-09-09T05:33:25;58.20;;;2.80;;
1308;SDS011;647;48.840;9.314;2022-09-09T05:35:59;57.97;;;2.67;;
1308;SDS011;647;48.840;9.314;2022-09-09T05:38:26;58.20;;;2.70;;
1308;SDS011;647;48.840;9.314;2022-09-09T05:40:53;58.37;;;3.10;;
1308;SDS011;647;48.840;9.314;2022-09-09T05:43:23;58.23;;;3.03;;
1308;SDS011;647;48.840;9.314;2022-09-09T05:45:58;58.47;;;3.07;;
1308;SDS011;647;48.840;9.314;2022-09-09T05:48:27;58.67;;;3.10;;
1308;SDS011;647;48.840;9.314;2022-09-09T05:50:54;58.30;;;3.00;;
1308;SDS011;647;48.840;9.314;2022-09-09T05:53:21;58.20;;;2.77;;
1308;SDS011;647;48.840;9.314;2022-09-09T05:55:48;58.07;;;2.80;;
1308;SDS011;647;48.840;9.314;2022-09-09T05:58:15;58.17;;;2.53;;
1308;SDS011;647;48.840;9.314;2022-09-09T06:00:44;59.40;;;4.03;;
1308;SDS011;647;48.840;9.314;2022-09-09T06:03:11;67.73;;;3.57;;
1308;SDS011;647;48.840;9.314;2022-09-09T06:05:38;58.47;;;3.20;;
1308;SDS011;647;48.840;9.314;2022-09-09T06:08:06;59.50;;;3.20;;
1308;SDS011;647;48.840;9.314;2022-09-09T06:10:33;59.47;;;3.10;;
1308;SDS011;647;48.840;9.314;2022-09-09T06:13:00;58.27;;;2.80;;
1308;SDS011;647;48.840;9.314;2022-09-09T06:15:27;58.70;;;3.07;;
1308;SDS011;647;48.840;9.314;2022-09-09T06:17:56;58.77;;;3.23;;
1308;SDS011;647;48.840;9.314;2022-09-09T06:20:23;61.47;;;3.20;;
1308;SDS011;647;48.840;9.314;2022-09-09T06:22:50;60.00;;;2.60;;
1308;SDS011;647;48.840;9.314;2022-09-09T06:25:17;58.27;;;2.90;;
1308;SDS011;647;48.840;9.314;2022-09-09T06:27:47;59.77;;;2.93;;
1308;SDS011;647;48.840;9.314;2022-09-09T06:30:15;58.07;;;2.63;;
1308;SDS011;647;48.840;9.314;2022-09-09T06:32:43;58.30;;;2.63;;
1308;SDS011;647;48.840;9.314;2022-09-09T06:35:11;61.37;;;3.53;;
1308;SDS011;647;48.840;9.314;2022-09-09T06:37:38;58.40;;;2.40;;
1308;SDS011;647;48.840;9.314;2022-09-09T06:40:06;58.37;;;2.90;;
1308;SDS011;647;48.840;9.314;2022-09-09T06:42:33;58.00;;;2.70;;
1308;SDS011;647;48.840;9.314;2022-09-09T06:45:00;58.67;;;3.00;;
1308;SDS011;647;48.840;9.314;2022-09-09T06:47:28;58.03;;;2.93;;
1308;SDS011;647;48.840;9.314;2022-09-09T06:49:55;58.57;;;3.00;;
1308;SDS011;647;48.840;9.314;2022-09-09T06:52:24;59.10;;;2.90;;
1308;SDS011;647;48.840;9.314;2022-09-09T06:54:51;58.27;;;3.03;;
1308;SDS011;647;48.840;9.314;2022-09-09T06:57:19;57.90;;;2.50;;
1308;SDS011;647;48.840;9.314;2022-09-09T06:59:47;57.87;;;2.47;;
1308;SDS011;647;48.840;9.314;2022-09-09T07:02:14;57.73;;;2.57;;
1308;SDS011;647;48.840;9.314;2022-09-09T07:04:41;57.97;;;2.50;;
1308;SDS011;647;48.840;9.314;2022-09-09T07:07:08;58.17;;;2.60;;
1308;SDS011;647;48.840;9.314;2022-09-09T07:09:38;57.97;;;2.60;;
1308;SDS011;647;48.840;9.314;2022-09-09T07:12:05;57.87;;;2.33;;
1308;SDS011;647;48.840;9.314;2022-09-09T07:14:33;63.33;;;2.80;;
1308;SDS011;647;48.840;9.314;2022-09-09T07:17:02;57.63;;;2.50;;
1308;SDS011;647;48.840;9.314;2022-09-09T07:19:29;58.30;;;2.67;;
1308;SDS011;647;48.840;9.314;2022-09-09T07:21:56;61.70;;;2.93;;
1308;SDS011;647;48.840;9.314;2022-09-09T07:24:23;58.37;;;2.60;;
1308;SDS011;647;48.840;9.314;2022-09-09T07:26:56;58.37;;;2.77;;
1308;SDS011;647;48.840;9.314;2022-09-09T07:29:23;58.30;;;2.53;;
1308;SDS011;647;48.840;9.314;2022-09-09T07:31:50;57.87;;;2.50;;
1308;SDS011;647;48.840;9.314;2022-09-09T07:34:17;57.97;;;2.67;;
1308;SDS011;647;48.840;9.314;2022-09-09T07:36:44;58.87;;;3.30;;
1308;SDS011;647;48.840;9.314;2022-09-09T07:39:12;59.47;;;2.90;;
1308;SDS011;647;48.840;9.314;2022-09-09T07:41:40;59.60;;;3.13;;
1308;SDS011;647;48.840;9.314;2022-09-09T07:44:10;58.37;;;2.67;;
1308;SDS011;647;48.840;9.314;2022-09-09T07:46:38;58.97;;;3.20;;
1308;SDS011;647;48.840;9.314;2022-09-09T07:49:06;57.97;;;2.40;;
1308;SDS011;647;48.840;9.314;2022-09-09T07:51:34;58.07;;;2.50;;
1308;SDS011;647;48.840;9.314;2022-09-09T07:54:02;59.30;;;4.40;;
1308;SDS011;647;48.840;9.314;2022-09-09T07:56:29;57.67;;;2.47;;
1308;SDS011;647;48.840;9.314;2022-09-09T07:58:57;58.97;;;2.57;;
1308;SDS011;647;48.840;9.314;2022-09-09T08:01:26;58.20;;;2.60;;
1308;SDS011;647;48.840;9.314;2022-09-09T08:03:54;57.90;;;2.30;;
1308;SDS011;647;48.840;9.314;2022-09-09T08:06:23;57.93;;;2.40;;
1308;SDS011;647;48.840;9.314;2022-09-09T08:08:51;64.20;;;2.80;;
1308;SDS011;647;48.840;9.314;2022-09-09T08:11:20;57.73;;;2.30;;
1308;SDS011;647;48.840;9.314;2022-09-09T08:13:48;58.13;;;2.40;;
1308;SDS011;647;48.840;9.314;2022-09-09T08:16:16;58.07;;;2.37;;
1308;SDS011;647;48.840;9.314;2022-09-09T08:18:48;58.67;;;3.20;;
1308;SDS011;647;48.840;9.314;2022-09-09T08:21:17;60.00;;;2.83;;
1308;SDS011;647;48.840;9.314;2022-09-09T08:23:44;57.97;;;2.50;;
1308;SDS011;647;48.840;9.314;2022-09-09T08:26:13;58.10;;;2.50;;
1308;SDS011;647;48.840;9.314;2022-09-09T08:28:41;58.50;;;2.80;;
1308;SDS011;647;48.840;9.314;2022-09-09T08:31:09;57.87;;;2.30;;
1308;SDS011;647;48.840;9.314;2022-09-09T08:33:37;58.30;;;2.53;;
1308;SDS011;647;48.840;9.314;2022-09-09T08:36:06;57.53;;;2.40;;
1308;SDS011;647;48.840;9.314;2022-09-09T08:38:34;59.63;;;3.03;;
1308;SDS011;647;48.840;9.314;2022-09-09T08:41:05;58.07;;;2.40;;
1308;SDS011;647;48.840;9.314;2022-09-09T08:43:34;57.90;;;2.33;;
1308;SDS011;647;48.840;9.314;2022-09-09T08:46:03;58.20;;;2.47;;
1308;SDS011;647;48.840;9.314;2022-09-09T08:48:39;59.13;;;2.63;;
1308;SDS011;647;48.840;9.314;2022-09-09T08:51:11;58.03;;;2.67;;
1308;SDS011;647;48.840;9.314;2022-09-09T08:53:40;57.77;;;2.30;;
1308;SDS011;647;48.840;9.314;2022-09-09T08:56:09;57.73;;;2.30;;
1308;SDS011;647;48.840;9.314;2022-09-09T08:58:41;59.20;;;2.63;;
1308;SDS011;647;48.840;9.314;2022-09-09T09:01:22;62.13;;;2.80;;
1308;SDS011;647;48.840;9.314;2022-09-09T09:03:56;57.97;;;2.50;;
1308;SDS011;647;48.840;9.314;2022-09-09T09:06:30;64.27;;;2.40;;
1308;SDS011;647;48.840;9.314;2022-09-09T09:09:03;58.53;;;2.67;;
1308;SDS011;647;48.840;9.314;2022-09-09T09:11:35;58.40;;;2.60;;
1308;SDS011;647;48.840;9.314;2022-09-09T09:14:02;58.20;;;2.90;;
1308;SDS011;647;48.840;9.314;2022-09-09T09:16:30;58.93;;;2.77;;
1308;SDS011;647;48.840;9.314;2022-09-09T09:19:00;58.70;;;2.40;;
1308;SDS011;647;48.840;9.314;2022-09-09T09:21:41;60.40;;;3.10;;
1308;SDS011;647;48.840;9.314;2022-09-09T09:24:12;58.17;;;2.73;;
1308;SDS011;647;48.840;9.314;2022-09-09T09:26:41;57.97;;;2.30;;
1308;SDS011;647;48.840;9.314;2022-09-09T09:29:11;58.53;;;2.83;;
1308;SDS011;647;48.840;9.314;2022-09-09T09:31:41;57.40;;;2.47;;
1308;SDS011;647;48.840;9.314;2022-09-09T09:34:08;60.57;;;2.90;;
1308;SDS011;647;48.840;9.314;2022-09-09T09:36:40;57.30;;;2.03;;
1308;SDS011;647;48.840;9.314;2022-09-09T09:39:09;58.30;;;2.00;;
1308;SDS011;647;48.840;9.314;2022-09-09T09:41:38;57.63;;;2.33;;
1308;SDS011;647;48.840;9.314;2022-09-09T09:44:06;57.70;;;2.10;;
1308;SDS011;647;48.840;9.314;2022-09-09T09:46:46;57.87;;;2.37;;
1308;SDS011;647;48.840;9.314;2022-09-09T09:49:13;58.17;;;2.40;;
1308;SDS011;647;48.840;9.314;2022-09-09T09:51:42;57.73;;;2.13;;
1308;SDS011;647;48.840;9.314;2022-09-09T09:54:13;57.87;;;2.43;;
1308;SDS011;647;48.840;9.314;2022-09-09T09:56:41;58.50;;;2.50;;
1308;SDS011;647;48.840;9.314;2022-09-09T09:59:19;57.87;;;1.87;;
1308;SDS011;647;48.840;9.314;2022-09-09T10:01:46;57.70;;;2.50;;
1308;SDS011;647;48.840;9.314;2022-09-09T10:04:14;58.50;;;2.10;;
1308;SDS011;647;48.840;9.314;2022-09-09T10:06:44;58.07;;;2.30;;
1308;SDS011;647;48.840;9.314;2022-09-09T10:09:20;58.20;;;1.97;;
1308;SDS011;647;48.840;9.314;2022-09-09T10:11:49;58.27;;;2.10;;
1308;SDS011;647;48.840;9.314;2022-09-09T10:14:18;57.47;;;1.97;;
1308;SDS011;647;48.840;9.314;2022-09-09T10:16:59;57.23;;;1.70;;
1308;SDS011;647;48.840;9.314;2022-09-09T10:19:31;57.57;;;1.70;;
1308;SDS011;647;48.840;9.314;2022-09-09T10:22:12;57.10;;;1.90;;
1308;SDS011;647;48.840;9.314;2022-09-09T10:27:33;56.97;;;1.90;;
1308;SDS011;647;48.840;9.314;2022-09-09T10:30:09;57.17;;;1.70;;
1308;SDS011;647;48.840;9.314;2022-09-09T10:32:45;57.03;;;1.73;;
1308;SDS011;647;48.840;9.314;2022-09-09T10:35:14;57.07;;;1.80;;
1308;SDS011;647;48.840;9.314;2022-09-09T10:37:49;57.03;;;1.80;;
1308;SDS011;647;48.840;9.314;2022-09-09T10:40:21;56.60;;;1.60;;
1308;SDS011;647;48.840;9.314;2022-09-09T10:42:50;57.10;;;1.80;;
1308;SDS011;647;48.840;9.314;2022-09-09T10:45:18;57.20;;;1.70;;
1308;SDS011;647;48.840;9.314;2022-09-09T10:47:53;58.17;;;1.80;;
1308;SDS011;647;48.840;9.314;2022-09-09T10:53:08;57.10;;;1.80;;
1308;SDS011;647;48.840;9.314;2022-09-09T10:55:40;58.37;;;1.60;;
1308;SDS011;647;48.840;9.314;2022-09-09T10:58:10;58.27;;;1.90;;
1308;SDS011;647;48.840;9.314;2022-09-09T11:00:40;57.07;;;1.63;;
1308;SDS011;647;48.840;9.314;2022-09-09T11:03:12;57.20;;;1.70;;
1308;SDS011;647;48.840;9.314;2022-09-09T11:05:44;57.50;;;2.00;;
1308;SDS011;647;48.840;9.314;2022-09-09T11:08:15;57.80;;;2.00;;
1308;SDS011;647;48.840;9.314;2022-09-09T11:10:44;57.70;;;2.00;;
1308;SDS011;647;48.840;9.314;2022-09-09T11:13:14;58.60;;;2.73;;
1308;SDS011;647;48.840;9.314;2022-09-09T11:15:43;57.83;;;2.17;;
1308;SDS011;647;48.840;9.314;2022-09-09T11:18:12;57.80;;;1.80;;
1308;SDS011;647;48.840;9.314;2022-09-09T11:20:40;58.03;;;2.37;;
1308;SDS011;647;48.840;9.314;2022-09-09T11:23:09;57.37;;;1.90;;
1308;SDS011;647;48.840;9.314;2022-09-09T11:25:42;58.00;;;1.90;;
1308;SDS011;647;48.840;9.314;2022-09-09T11:31:02;56.67;;;1.97;;
1308;SDS011;647;48.840;9.314;2022-09-09T11:33:54;57.37;;;2.10;;
1308;SDS011;647;48.840;9.314;2022-09-09T11:36:35;58.20;;;2.20;;
1308;SDS011;647;48.840;9.314;2022-09-09T11:39:09;58.03;;;2.20;;
1308;SDS011;647;48.840;9.314;2022-09-09T11:41:43;58.10;;;2.67;;
1308;SDS011;647;48.840;9.314;2022-09-09T11:44:10;58.70;;;2.47;;
1308;SDS011;647;48.840;9.314;2022-09-09T11:46:38;57.57;;;2.40;;
1308;SDS011;647;48.840;9.314;2022-09-09T11:49:21;57.77;;;2.17;;
1308;SDS011;647;48.840;9.314;2022-09-09T11:51:53;59.33;;;2.30;;
1308;SDS011;647;48.840;9.314;2022-09-09T11:54:28;58.50;;;3.03;;
1308;SDS011;647;48.840;9.314;2022-09-09T11:56:56;59.30;;;2.60;;
1308;SDS011;647;48.840;9.314;2022-09-09T11:59:25;60.93;;;2.37;;
1308;SDS011;647;48.840;9.314;2022-09-09T12:01:54;57.87;;;2.07;;
1308;SDS011;647;48.840;9.314;2022-09-09T12:04:27;58.40;;;3.00;;
1308;SDS011;647;48.840;9.314;2022-09-09T12:06:56;57.90;;;2.20;;
1308;SDS011;647;48.840;9.314;2022-09-09T12:09:26;57.93;;;2.37;;
1308;SDS011;647;48.840;9.314;2022-09-09T12:12:05;57.90;;;2.20;;
1308;SDS011;647;48.840;9.314;2022-09-09T12:14:37;57.80;;;2.03;;
1308;SDS011;647;48.840;9.314;2022-09-09T12:17:17;57.80;;;1.90;;
1308;SDS011;647;48.840;9.314;2022-09-09T12:19:46;57.47;;;2.13;;
1308;SDS011;647;48.840;9.314;2022-09-09T12:22:16;57.67;;;2.10;;
1308;SDS011;647;48.840;9.314;2022-09-09T12:24:47;57.50;;;2.20;;
1308;SDS011;647;48.840;9.314;2022-09-09T12:27:19;57.17;;;2.00;;
1308;SDS011;647;48.840;9.314;2022-09-09T12:29:48;57.67;;;2.00;;
1308;SDS011;647;48.840;9.314;2022-09-09T12:32:19;57.60;;;2.10;;
1308;SDS011;647;48.840;9.314;2022-09-09T12:34:48;57.63;;;2.00;;
1308;SDS011;647;48.840;9.314;2022-09-09T12:37:21;57.37;;;1.80;;
1308;SDS011;647;48.840;9.314;2022-09-09T12:39:51;57.60;;;1.90;;
1308;SDS011;647;48.840;9.314;2022-09-09T12:42:23;57.60;;;1.90;;
1308;SDS011;647;48.840;9.314;2022-09-09T12:44:51;57.33;;;1.80;;
1308;SDS011;647;48.840;9.314;2022-09-09T12:47:18;57.47;;;1.80;;
1308;SDS011;647;48.840;9.314;2022-09-09T12:49:47;57.57;;;2.30;;
1308;SDS011;647;48.840;9.314;2022-09-09T12:52:17;57.40;;;1.80;;
1308;SDS011;647;48.840;9.314;2022-09-09T12:54:47;57.20;;;1.60;;
1308;SDS011;647;48.840;9.314;2022-09-09T12:57:16;57.30;;;1.60;;
1308;SDS011;647;48.840;9.314;2022-09-09T12:59:45;58.10;;;1.90;;
1308;SDS011;647;48.840;9.314;2022-09-09T13:02:17;57.50;;;1.80;;
1308;SDS011;647;48.840;9.314;2022-09-09T13:04:45;58.20;;;1.90;;
1308;SDS011;647;48.840;9.314;2022-09-09T13:07:13;57.57;;;2.20;;
1308;SDS011;647;48.840;9.314;2022-09-09T13:09:41;57.33;;;2.10;;
1308;SDS011;647;48.840;9.314;2022-09-09T13:12:11;58.20;;;2.30;;
1308;SDS011;647;48.840;9.314;2022-09-09T13:14:40;57.10;;;2.00;;
1308;SDS011;647;48.840;9.314;2022-09-09T13:17:17;57.50;;;2.33;;
1308;SDS011;647;48.840;9.314;2022-09-09T13:19:44;57.37;;;1.87;;
1308;SDS011;647;48.840;9.314;2022-09-09T13:22:12;57.60;;;2.00;;
1308;SDS011;647;48.840;9.314;2022-09-09T13:24:39;57.87;;;2.10;;
1308;SDS011;647;48.840;9.314;2022-09-09T13:27:20;57.50;;;2.10;;
1308;SDS011;647;48.840;9.314;2022-09-09T13:29:50;57.57;;;2.20;;
1308;SDS011;647;48.840;9.314;2022-09-09T13:32:22;57.80;;;2.20;;
1308;SDS011;647;48.840;9.314;2022-09-09T13:34:50;57.33;;;2.00;;
1308;SDS011;647;48.840;9.314;2022-09-09T13:37:19;58.10;;;2.40;;
1308;SDS011;647;48.840;9.314;2022-09-09T13:39:51;58.47;;;2.20;;
1308;SDS011;647;48.840;9.314;2022-09-09T13:42:21;57.80;;;2.17;;
1308;SDS011;647;48.840;9.314;2022-09-09T13:44:50;57.77;;;2.30;;
1308;SDS011;647;48.840;9.314;2022-09-09T13:47:19;56.87;;;2.20;;
1308;SDS011;647;48.840;9.314;2022-09-09T13:49:47;57.87;;;2.13;;
1308;SDS011;647;48.840;9.314;2022-09-09T13:52:15;57.27;;;2.00;;
1308;SDS011;647;48.840;9.314;2022-09-09T13:54:46;57.50;;;1.87;;
1308;SDS011;647;48.840;9.314;2022-09-09T13:57:15;57.90;;;1.90;;
1308;SDS011;647;48.840;9.314;2022-09-09T13:59:43;57.17;;;1.80;;
1308;SDS011;647;48.840;9.314;2022-09-09T14:02:10;57.27;;;1.80;;
1308;SDS011;647;48.840;9.314;2022-09-09T14:04:37;56.93;;;1.80;;
1308;SDS011;647;48.840;9.314;2022-09-09T14:07:07;57.90;;;2.00;;
1308;SDS011;647;48.840;9.314;2022-09-09T14:09:36;58.20;;;2.13;;
1308;SDS011;647;48.840;9.314;2022-09-09T14:12:03;57.90;;;1.90;;
1308;SDS011;647;48.840;9.314;2022-09-09T14:14:30;57.70;;;2.20;;
1308;SDS011;647;48.840;9.314;2022-09-09T14:16:57;58.03;;;1.90;;
1308;SDS011;647;48.840;9.314;2022-09-09T14:19:24;57.27;;;2.10;;
1308;SDS011;647;48.840;9.314;2022-09-09T14:21:52;57.27;;;1.80;;
1308;SDS011;647;48.840;9.314;2022-09-09T14:24:20;58.03;;;2.00;;
1308;SDS011;647;48.840;9.314;2022-09-09T14:26:47;57.40;;;1.93;;
1308;SDS011;647;48.840;9.314;2022-09-09T14:29:15;57.33;;;1.90;;
1308;SDS011;647;48.840;9.314;2022-09-09T14:31:42;58.53;;;2.20;;
1308;SDS011;647;48.840;9.314;2022-09-09T14:34:09;57.17;;;2.20;;
1308;SDS011;647;48.840;9.314;2022-09-09T14:36:36;57.27;;;1.90;;
1308;SDS011;647;48.840;9.314;2022-09-09T14:39:03;57.47;;;1.90;;
1308;SDS011;647;48.840;9.314;2022-09-09T14:41:31;59.07;;;2.20;;
1308;SDS011;647;48.840;9.314;2022-09-09T14:43:58;57.37;;;1.80;;
1308;SDS011;647;48.840;9.314;2022-09-09T14:46:26;57.47;;;1.90;;
1308;SDS011;647;48.840;9.314;2022-09-09T14:48:53;57.47;;;2.23;;
1308;SDS011;647;48.840;9.314;2022-09-09T14:51:20;57.37;;;1.90;;
1308;SDS011;647;48.840;9.314;2022-09-09T14:53:48;57.80;;;2.27;;
1308;SDS011;647;48.840;9.314;2022-09-09T14:56:18;58.87;;;2.30;;
1308;SDS011;647;48.840;9.314;2022-09-09T14:58:47;57.33;;;2.00;;
1308;SDS011;647;48.840;9.314;2022-09-09T15:01:15;57.40;;;1.97;;
1308;SDS011;647;48.840;9.314;2022-09-09T15:03:43;58.47;;;2.30;;
1308;SDS011;647;48.840;9.314;2022-09-09T15:06:14;58.93;;;2.57;;
1308;SDS011;647;48.840;9.314;2022-09-09T15:08:43;58.63;;;2.00;;
1308;SDS011;647;48.840;9.314;2022-09-09T15:11:11;57.40;;;2.20;;
1308;SDS011;647;48.840;9.314;2022-09-09T15:13:39;57.80;;;1.90;;
1308;SDS011;647;48.840;9.314;2022-09-09T15:16:08;57.60;;;2.00;;
1308;SDS011;647;48.840;9.314;2022-09-09T15:18:35;57.47;;;2.00;;
1308;SDS011;647;48.840;9.314;2022-09-09T15:21:07;58.50;;;2.00;;
1308;SDS011;647;48.840;9.314;2022-09-09T15:23:35;57.67;;;1.90;;
1308;SDS011;647;48.840;9.314;2022-09-09T15:26:02;57.37;;;2.37;;
1308;SDS011;647;48.840;9.314;2022-09-09T15:28:30;58.27;;;1.80;;
1308;SDS011;647;48.840;9.314;2022-09-09T15:30:57;57.27;;;2.00;;
1308;SDS011;647;48.840;9.314;2022-09-09T15:33:27;57.83;;;2.30;;
1308;SDS011;647;48.840;9.314;2022-09-09T15:35:54;57.47;;;1.90;;
1308;SDS011;647;48.840;9.314;2022-09-09T15:38:21;57.57;;;2.00;;
1308;SDS011;647;48.840;9.314;2022-09-09T15:40:52;57.10;;;2.30;;